sensor_id;sensor_type;location;lat;lon;timestamp;P1;durP1;ratioP1;P2;durP2;ratioP2
18806;SDS011;9531;52.030;4.380;2023-01-04T00:02:08;1.02;;;0.90;;
18806;SDS011;9531;52.030;4.380;2023-01-04T00:04:35;4.38;;;2.20;;
18806;SDS011;9531;52.030;4.380;2023-01-04T00:07:02;3.38;;;1.40;;
18806;SDS011;9531;52.030;4.380;2023-01-04T00:09:29;4.75;;;1.92;;
18806;SDS011;9531;52.030;4.380;2023-01-04T00:11:56;2.60;;;1.75;;
18806;SDS011;9531;52.030;4.380;2023-01-04T00:14:23;4.57;;;1.58;;
18806;SDS011;9531;52.030;4.380;2023-01-04T00:16:50;4.63;;;2.13;;
18806;SDS011;9531;52.030;4.380;2023-01-04T00:19:19;1.83;;;1.70;;
18806;SDS011;9531;52.030;4.380;2023-01-04T00:21:46;3.08;;;1.70;;
18806;SDS011;9531;52.030;4.380;2023-01-04T00:24:13;1.83;;;1.17;;
18806;SDS011;9531;52.030;4.380;2023-01-04T00:26:40;1.95;;;1.13;;
18806;SDS011;9531;52.030;4.380;2023-01-04T00:29:08;3.47;;;1.20;;
18806;SDS011;9531;52.030;4.380;2023-01-04T00:31:38;2.30;;;1.25;;
18806;SDS011;9531;52.030;4.380;2023-01-04T00:34:05;1.55;;;0.93;;
18806;SDS011;9531;52.030;4.380;2023-01-04T00:36:33;2.15;;;1.52;;
18806;SDS011;9531;52.030;4.380;2023-01-04T00:39:01;2.75;;;1.50;;
18806;SDS011;9531;52.030;4.380;2023-01-04T00:41:35;2.90;;;1.88;;
18806;SDS011;9531;52.030;4.380;2023-01-04T00:44:04;2.08;;;1.77;;
18806;SDS011;9531;52.030;4.380;2023-01-04T00:46:32;3.72;;;2.00;;
18806;SDS011;9531;52.030;4.380;2023-01-04T00:49:00;5.97;;;1.90;;
18806;SDS011;9531;52.030;4.380;2023-01-04T00:51:28;3.60;;;2.13;;
18806;SDS011;9531;52.030;4.380;2023-01-04T00:53:57;4.43;;;2.13;;
18806;SDS011;9531;52.030;4.380;2023-01-04T00:56:26;5.88;;;2.53;;
18806;SDS011;9531;52.030;4.380;2023-01-04T00:58:54;1.40;;;1.30;;
18806;SDS011;9531;52.030;4.380;2023-01-04T01:01:21;2.13;;;1.70;;
18806;SDS011;9531;52.030;4.380;2023-01-04T01:03:50;1.50;;;1.40;;
18806;SDS011;9531;52.030;4.380;2023-01-04T01:06:18;1.42;;;1.10;;
18806;SDS011;9531;52.030;4.380;2023-01-04T01:08:46;4.00;;;1.33;;
18806;SDS011;9531;52.030;4.380;2023-01-04T01:11:15;4.75;;;1.90;;
18806;SDS011;9531;52.030;4.380;2023-01-04T01:13:42;4.22;;;2.35;;
18806;SDS011;9531;52.030;4.380;2023-01-04T01:16:10;3.33;;;1.58;;
18806;SDS011;9531;52.030;4.380;2023-01-04T01:18:40;0.90;;;0.90;;
18806;SDS011;9531;52.030;4.380;2023-01-04T01:21:09;3.65;;;2.47;;
18806;SDS011;9531;52.030;4.380;2023-01-04T01:23:38;3.55;;;1.83;;
18806;SDS011;9531;52.030;4.380;2023-01-04T01:26:06;1.90;;;1.50;;
18806;SDS011;9531;52.030;4.380;2023-01-04T01:28:35;2.70;;;1.98;;
18806;SDS011;9531;52.030;4.380;2023-01-04T01:31:06;1.33;;;1.23;;
18806;SDS011;9531;52.030;4.380;2023-01-04T01:33:35;3.08;;;1.45;;
18806;SDS011;9531;52.030;4.380;2023-01-04T01:36:02;3.63;;;2.05;;
18806;SDS011;9531;52.030;4.380;2023-01-04T01:38:30;4.22;;;2.08;;
18806;SDS011;9531;52.030;4.380;2023-01-04T01:40:57;2.80;;;1.60;;
18806;SDS011;9531;52.030;4.380;2023-01-04T01:46:15;3.03;;;2.35;;
18806;SDS011;9531;52.030;4.380;2023-01-04T01:48:45;1.92;;;1.05;;
18806;SDS011;9531;52.030;4.380;2023-01-04T01:51:12;1.80;;;1.65;;
18806;SDS011;9531;52.030;4.380;2023-01-04T01:53:42;2.28;;;1.77;;
18806;SDS011;9531;52.030;4.380;2023-01-04T01:56:13;2.78;;;1.73;;
18806;SDS011;9531;52.030;4.380;2023-01-04T01:58:43;3.05;;;1.80;;
18806;SDS011;9531;52.030;4.380;2023-01-04T02:01:17;1.40;;;1.20;;
18806;SDS011;9531;52.030;4.380;2023-01-04T02:03:44;4.55;;;2.58;;
18806;SDS011;9531;52.030;4.380;2023-01-04T02:06:12;0.93;;;0.90;;
18806;SDS011;9531;52.030;4.380;2023-01-04T02:08:49;5.00;;;1.80;;
18806;SDS011;9531;52.030;4.380;2023-01-04T02:11:16;1.05;;;0.90;;
18806;SDS011;9531;52.030;4.380;2023-01-04T02:13:43;1.42;;;0.95;;
18806;SDS011;9531;52.030;4.380;2023-01-04T02:16:32;3.15;;;1.80;;
18806;SDS011;9531;52.030;4.380;2023-01-04T02:19:17;2.10;;;1.40;;
18806;SDS011;9531;52.030;4.380;2023-01-04T02:22:03;1.40;;;1.30;;
18806;SDS011;9531;52.030;4.380;2023-01-04T02:24:54;4.93;;;1.50;;
18806;SDS011;9531;52.030;4.380;2023-01-04T02:27:40;2.53;;;1.70;;
18806;SDS011;9531;52.030;4.380;2023-01-04T02:33:29;1.80;;;1.70;;
18806;SDS011;9531;52.030;4.380;2023-01-04T02:36:06;1.45;;;1.35;;
18806;SDS011;9531;52.030;4.380;2023-01-04T02:38:42;1.75;;;1.17;;
18806;SDS011;9531;52.030;4.380;2023-01-04T02:41:18;1.58;;;1.45;;
18806;SDS011;9531;52.030;4.380;2023-01-04T02:43:55;2.28;;;1.80;;
18806;SDS011;9531;52.030;4.380;2023-01-04T02:46:44;2.78;;;1.65;;
18806;SDS011;9531;52.030;4.380;2023-01-04T02:49:15;4.15;;;2.30;;
18806;SDS011;9531;52.030;4.380;2023-01-04T02:52:00;1.50;;;1.40;;
18806;SDS011;9531;52.030;4.380;2023-01-04T02:54:27;1.50;;;1.35;;
18806;SDS011;9531;52.030;4.380;2023-01-04T02:57:06;2.17;;;1.85;;
18806;SDS011;9531;52.030;4.380;2023-01-04T02:59:46;4.15;;;1.65;;
18806;SDS011;9531;52.030;4.380;2023-01-04T03:02:36;1.88;;;1.58;;
18806;SDS011;9531;52.030;4.380;2023-01-04T03:05:42;3.60;;;1.90;;
18806;SDS011;9531;52.030;4.380;2023-01-04T03:08:33;2.08;;;1.63;;
18806;SDS011;9531;52.030;4.380;2023-01-04T03:11:04;2.30;;;1.95;;
18806;SDS011;9531;52.030;4.380;2023-01-04T03:13:54;1.70;;;1.60;;
18806;SDS011;9531;52.030;4.380;2023-01-04T03:16:23;2.13;;;1.67;;
18806;SDS011;9531;52.030;4.380;2023-01-04T03:18:51;2.58;;;2.38;;
18806;SDS011;9531;52.030;4.380;2023-01-04T03:21:23;3.08;;;1.75;;
18806;SDS011;9531;52.030;4.380;2023-01-04T03:23:52;2.88;;;2.63;;
18806;SDS011;9531;52.030;4.380;2023-01-04T03:26:40;2.13;;;1.83;;
18806;SDS011;9531;52.030;4.380;2023-01-04T03:29:29;2.78;;;2.50;;
18806;SDS011;9531;52.030;4.380;2023-01-04T03:32:17;2.10;;;1.90;;
18806;SDS011;9531;52.030;4.380;2023-01-04T03:35:05;2.05;;;1.58;;
18806;SDS011;9531;52.030;4.380;2023-01-04T03:37:55;3.47;;;1.77;;
18806;SDS011;9531;52.030;4.380;2023-01-04T03:40:49;1.77;;;1.67;;
18806;SDS011;9531;52.030;4.380;2023-01-04T03:43:41;3.50;;;2.60;;
18806;SDS011;9531;52.030;4.380;2023-01-04T03:46:33;3.03;;;2.67;;
18806;SDS011;9531;52.030;4.380;2023-01-04T03:49:23;2.30;;;2.00;;
18806;SDS011;9531;52.030;4.380;2023-01-04T03:51:54;3.45;;;2.20;;
18806;SDS011;9531;52.030;4.380;2023-01-04T03:54:27;3.05;;;2.55;;
18806;SDS011;9531;52.030;4.380;2023-01-04T03:56:56;3.60;;;1.88;;
18806;SDS011;9531;52.030;4.380;2023-01-04T03:59:24;2.70;;;2.25;;
18806;SDS011;9531;52.030;4.380;2023-01-04T04:01:51;2.15;;;1.75;;
18806;SDS011;9531;52.030;4.380;2023-01-04T04:04:18;3.20;;;2.25;;
18806;SDS011;9531;52.030;4.380;2023-01-04T04:07:03;3.72;;;2.28;;
18806;SDS011;9531;52.030;4.380;2023-01-04T04:09:49;3.90;;;2.40;;
18806;SDS011;9531;52.030;4.380;2023-01-04T04:12:16;2.95;;;1.83;;
18806;SDS011;9531;52.030;4.380;2023-01-04T04:14:43;2.63;;;1.42;;
18806;SDS011;9531;52.030;4.380;2023-01-04T04:17:09;3.28;;;2.13;;
18806;SDS011;9531;52.030;4.380;2023-01-04T04:19:36;6.25;;;1.75;;
18806;SDS011;9531;52.030;4.380;2023-01-04T04:22:03;2.55;;;1.70;;
18806;SDS011;9531;52.030;4.380;2023-01-04T04:24:30;3.90;;;1.95;;
18806;SDS011;9531;52.030;4.380;2023-01-04T04:26:59;4.22;;;1.38;;
18806;SDS011;9531;52.030;4.380;2023-01-04T04:29:26;3.15;;;1.60;;
18806;SDS011;9531;52.030;4.380;2023-01-04T04:31:53;4.53;;;1.48;;
18806;SDS011;9531;52.030;4.380;2023-01-04T04:34:19;2.72;;;1.77;;
18806;SDS011;9531;52.030;4.380;2023-01-04T04:36:46;2.67;;;1.50;;
18806;SDS011;9531;52.030;4.380;2023-01-04T04:39:13;4.40;;;2.17;;
18806;SDS011;9531;52.030;4.380;2023-01-04T04:41:40;4.05;;;1.60;;
18806;SDS011;9531;52.030;4.380;2023-01-04T04:44:08;5.95;;;1.70;;
18806;SDS011;9531;52.030;4.380;2023-01-04T04:46:37;1.98;;;1.20;;
18806;SDS011;9531;52.030;4.380;2023-01-04T04:49:05;2.90;;;1.83;;
18806;SDS011;9531;52.030;4.380;2023-01-04T04:51:32;3.50;;;1.60;;
18806;SDS011;9531;52.030;4.380;2023-01-04T04:54:00;3.00;;;1.65;;
18806;SDS011;9531;52.030;4.380;2023-01-04T04:56:27;6.78;;;1.33;;
18806;SDS011;9531;52.030;4.380;2023-01-04T04:58:54;4.38;;;1.40;;
18806;SDS011;9531;52.030;4.380;2023-01-04T05:01:23;3.92;;;1.67;;
18806;SDS011;9531;52.030;4.380;2023-01-04T05:03:50;1.45;;;0.90;;
18806;SDS011;9531;52.030;4.380;2023-01-04T05:06:17;2.10;;;1.30;;
18806;SDS011;9531;52.030;4.380;2023-01-04T05:08:44;3.72;;;1.40;;
18806;SDS011;9531;52.030;4.380;2023-01-04T05:11:11;2.97;;;1.00;;
18806;SDS011;9531;52.030;4.380;2023-01-04T05:13:39;1.90;;;1.50;;
18806;SDS011;9531;52.030;4.380;2023-01-04T05:16:05;1.65;;;1.30;;
18806;SDS011;9531;52.030;4.380;2023-01-04T05:18:35;1.80;;;1.45;;
18806;SDS011;9531;52.030;4.380;2023-01-04T05:21:02;2.75;;;0.93;;
18806;SDS011;9531;52.030;4.380;2023-01-04T05:23:29;3.92;;;1.30;;
18806;SDS011;9531;52.030;4.380;2023-01-04T05:25:57;4.40;;;1.50;;
18806;SDS011;9531;52.030;4.380;2023-01-04T05:28:26;0.80;;;0.80;;
18806;SDS011;9531;52.030;4.380;2023-01-04T05:30:53;2.00;;;1.70;;
18806;SDS011;9531;52.030;4.380;2023-01-04T05:33:20;3.13;;;1.65;;
18806;SDS011;9531;52.030;4.380;2023-01-04T05:35:50;1.33;;;1.17;;
18806;SDS011;9531;52.030;4.380;2023-01-04T05:38:18;2.13;;;1.58;;
18806;SDS011;9531;52.030;4.380;2023-01-04T05:40:46;2.25;;;1.70;;
18806;SDS011;9531;52.030;4.380;2023-01-04T05:43:14;3.00;;;1.92;;
18806;SDS011;9531;52.030;4.380;2023-01-04T05:45:42;1.55;;;1.42;;
18806;SDS011;9531;52.030;4.380;2023-01-04T05:48:12;1.90;;;1.42;;
18806;SDS011;9531;52.030;4.380;2023-01-04T05:50:39;0.95;;;0.93;;
18806;SDS011;9531;52.030;4.380;2023-01-04T05:53:07;4.40;;;1.55;;
18806;SDS011;9531;52.030;4.380;2023-01-04T05:55:34;1.40;;;1.15;;
18806;SDS011;9531;52.030;4.380;2023-01-04T05:58:01;1.25;;;1.15;;
18806;SDS011;9531;52.030;4.380;2023-01-04T06:00:28;2.17;;;1.40;;
18806;SDS011;9531;52.030;4.380;2023-01-04T06:02:55;0.80;;;0.80;;
18806;SDS011;9531;52.030;4.380;2023-01-04T06:05:22;3.10;;;1.67;;
18806;SDS011;9531;52.030;4.380;2023-01-04T06:07:49;2.67;;;1.73;;
18806;SDS011;9531;52.030;4.380;2023-01-04T06:10:18;1.95;;;1.75;;
18806;SDS011;9531;52.030;4.380;2023-01-04T06:12:46;8.00;;;1.75;;
18806;SDS011;9531;52.030;4.380;2023-01-04T06:15:13;5.63;;;1.90;;
18806;SDS011;9531;52.030;4.380;2023-01-04T06:17:40;2.25;;;1.50;;
18806;SDS011;9531;52.030;4.380;2023-01-04T06:20:08;6.70;;;2.45;;
18806;SDS011;9531;52.030;4.380;2023-01-04T06:22:36;4.45;;;1.50;;
18806;SDS011;9531;52.030;4.380;2023-01-04T06:25:04;5.80;;;1.95;;
18806;SDS011;9531;52.030;4.380;2023-01-04T06:27:33;4.70;;;2.08;;
18806;SDS011;9531;52.030;4.380;2023-01-04T06:30:00;5.50;;;1.80;;
18806;SDS011;9531;52.030;4.380;2023-01-04T06:32:27;6.10;;;2.20;;
18806;SDS011;9531;52.030;4.380;2023-01-04T06:34:54;5.65;;;1.95;;
18806;SDS011;9531;52.030;4.380;2023-01-04T06:37:21;9.43;;;1.80;;
18806;SDS011;9531;52.030;4.380;2023-01-04T06:39:48;6.95;;;2.10;;
18806;SDS011;9531;52.030;4.380;2023-01-04T06:42:16;3.50;;;1.80;;
18806;SDS011;9531;52.030;4.380;2023-01-04T06:45:02;6.78;;;2.08;;
18806;SDS011;9531;52.030;4.380;2023-01-04T06:47:30;4.40;;;1.30;;
18806;SDS011;9531;52.030;4.380;2023-01-04T06:49:57;7.20;;;2.42;;
18806;SDS011;9531;52.030;4.380;2023-01-04T06:52:23;6.30;;;1.77;;
18806;SDS011;9531;52.030;4.380;2023-01-04T06:54:50;5.20;;;1.98;;
18806;SDS011;9531;52.030;4.380;2023-01-04T06:57:17;4.00;;;1.45;;
18806;SDS011;9531;52.030;4.380;2023-01-04T06:59:44;6.80;;;1.98;;
18806;SDS011;9531;52.030;4.380;2023-01-04T07:02:13;6.00;;;1.67;;
18806;SDS011;9531;52.030;4.380;2023-01-04T07:04:41;8.20;;;2.85;;
18806;SDS011;9531;52.030;4.380;2023-01-04T07:07:08;11.65;;;2.20;;
18806;SDS011;9531;52.030;4.380;2023-01-04T07:09:35;4.35;;;1.58;;
18806;SDS011;9531;52.030;4.380;2023-01-04T07:12:02;9.38;;;2.03;;
18806;SDS011;9531;52.030;4.380;2023-01-04T07:14:30;6.32;;;1.50;;
18806;SDS011;9531;52.030;4.380;2023-01-04T07:16:56;3.30;;;1.48;;
18806;SDS011;9531;52.030;4.380;2023-01-04T07:19:25;8.95;;;2.10;;
18806;SDS011;9531;52.030;4.380;2023-01-04T07:21:52;11.20;;;2.35;;
18806;SDS011;9531;52.030;4.380;2023-01-04T07:24:19;4.32;;;1.88;;
18806;SDS011;9531;52.030;4.380;2023-01-04T07:26:46;7.97;;;2.40;;
18806;SDS011;9531;52.030;4.380;2023-01-04T07:29:13;7.40;;;1.70;;
18806;SDS011;9531;52.030;4.380;2023-01-04T07:31:41;4.13;;;1.30;;
18806;SDS011;9531;52.030;4.380;2023-01-04T07:34:08;6.68;;;1.88;;
18806;SDS011;9531;52.030;4.380;2023-01-04T07:36:37;5.25;;;2.17;;
18806;SDS011;9531;52.030;4.380;2023-01-04T07:39:04;4.70;;;1.67;;
18806;SDS011;9531;52.030;4.380;2023-01-04T07:41:31;6.85;;;1.90;;
18806;SDS011;9531;52.030;4.380;2023-01-04T07:43:58;4.35;;;1.58;;
18806;SDS011;9531;52.030;4.380;2023-01-04T07:46:25;5.90;;;2.03;;
18806;SDS011;9531;52.030;4.380;2023-01-04T07:48:53;8.85;;;1.77;;
18806;SDS011;9531;52.030;4.380;2023-01-04T07:51:20;10.93;;;2.08;;
18806;SDS011;9531;52.030;4.380;2023-01-04T07:53:48;4.78;;;1.80;;
18806;SDS011;9531;52.030;4.380;2023-01-04T07:56:15;7.95;;;1.52;;
18806;SDS011;9531;52.030;4.380;2023-01-04T07:58:42;2.20;;;1.15;;
18806;SDS011;9531;52.030;4.380;2023-01-04T08:01:10;7.38;;;1.70;;
18806;SDS011;9531;52.030;4.380;2023-01-04T08:03:38;9.57;;;2.22;;
18806;SDS011;9531;52.030;4.380;2023-01-04T08:06:06;7.38;;;1.67;;
18806;SDS011;9531;52.030;4.380;2023-01-04T08:08:34;8.40;;;2.28;;
18806;SDS011;9531;52.030;4.380;2023-01-04T08:11:03;5.30;;;1.83;;
18806;SDS011;9531;52.030;4.380;2023-01-04T08:13:30;10.88;;;2.53;;
18806;SDS011;9531;52.030;4.380;2023-01-04T08:15:57;13.55;;;2.47;;
18806;SDS011;9531;52.030;4.380;2023-01-04T08:18:24;8.32;;;2.00;;
18806;SDS011;9531;52.030;4.380;2023-01-04T08:20:59;5.55;;;1.77;;
18806;SDS011;9531;52.030;4.380;2023-01-04T08:23:27;10.38;;;2.33;;
18806;SDS011;9531;52.030;4.380;2023-01-04T08:25:54;11.95;;;2.42;;
18806;SDS011;9531;52.030;4.380;2023-01-04T08:28:27;6.32;;;1.77;;
18806;SDS011;9531;52.030;4.380;2023-01-04T08:30:54;15.95;;;3.15;;
18806;SDS011;9531;52.030;4.380;2023-01-04T08:33:21;8.40;;;2.67;;
18806;SDS011;9531;52.030;4.380;2023-01-04T08:35:48;16.23;;;3.10;;
18806;SDS011;9531;52.030;4.380;2023-01-04T08:38:15;11.80;;;2.30;;
18806;SDS011;9531;52.030;4.380;2023-01-04T08:40:42;18.92;;;2.83;;
18806;SDS011;9531;52.030;4.380;2023-01-04T08:43:09;7.70;;;2.60;;
18806;SDS011;9531;52.030;4.380;2023-01-04T08:45:37;9.95;;;2.40;;
18806;SDS011;9531;52.030;4.380;2023-01-04T08:48:05;10.95;;;2.28;;
18806;SDS011;9531;52.030;4.380;2023-01-04T08:52:59;11.85;;;2.80;;
18806;SDS011;9531;52.030;4.380;2023-01-04T08:55:26;13.73;;;3.17;;
18806;SDS011;9531;52.030;4.380;2023-01-04T08:57:53;8.15;;;1.63;;
18806;SDS011;9531;52.030;4.380;2023-01-04T09:00:19;8.23;;;2.60;;
18806;SDS011;9531;52.030;4.380;2023-01-04T09:02:48;14.70;;;2.92;;
18806;SDS011;9531;52.030;4.380;2023-01-04T09:05:15;15.13;;;2.55;;
18806;SDS011;9531;52.030;4.380;2023-01-04T09:07:42;9.55;;;2.47;;
18806;SDS011;9531;52.030;4.380;2023-01-04T09:10:10;9.55;;;2.33;;
18806;SDS011;9531;52.030;4.380;2023-01-04T09:12:37;13.60;;;2.70;;
18806;SDS011;9531;52.030;4.380;2023-01-04T09:15:04;12.68;;;3.03;;
18806;SDS011;9531;52.030;4.380;2023-01-04T09:17:32;5.97;;;1.83;;
18806;SDS011;9531;52.030;4.380;2023-01-04T09:20:01;9.25;;;2.45;;
18806;SDS011;9531;52.030;4.380;2023-01-04T09:22:30;9.93;;;2.03;;
18806;SDS011;9531;52.030;4.380;2023-01-04T09:24:57;9.93;;;2.45;;
18806;SDS011;9531;52.030;4.380;2023-01-04T09:27:24;8.60;;;1.95;;
18806;SDS011;9531;52.030;4.380;2023-01-04T09:29:51;12.70;;;2.38;;
18806;SDS011;9531;52.030;4.380;2023-01-04T09:32:18;12.40;;;2.70;;
18806;SDS011;9531;52.030;4.380;2023-01-04T09:34:47;15.57;;;3.45;;
18806;SDS011;9531;52.030;4.380;2023-01-04T09:37:17;16.10;;;3.22;;
18806;SDS011;9531;52.030;4.380;2023-01-04T09:39:44;7.93;;;2.00;;
18806;SDS011;9531;52.030;4.380;2023-01-04T09:42:15;12.10;;;2.92;;
18806;SDS011;9531;52.030;4.380;2023-01-04T09:44:49;13.50;;;2.55;;
18806;SDS011;9531;52.030;4.380;2023-01-04T09:47:20;13.85;;;2.65;;
18806;SDS011;9531;52.030;4.380;2023-01-04T09:49:57;9.10;;;2.33;;
18806;SDS011;9531;52.030;4.380;2023-01-04T09:52:36;12.38;;;2.30;;
18806;SDS011;9531;52.030;4.380;2023-01-04T09:55:11;18.02;;;2.67;;
18806;SDS011;9531;52.030;4.380;2023-01-04T09:57:47;11.23;;;2.20;;
18806;SDS011;9531;52.030;4.380;2023-01-04T10:00:21;15.55;;;3.20;;
18806;SDS011;9531;52.030;4.380;2023-01-04T10:02:55;15.95;;;3.13;;
18806;SDS011;9531;52.030;4.380;2023-01-04T10:05:30;11.77;;;2.22;;
18806;SDS011;9531;52.030;4.380;2023-01-04T10:08:02;7.68;;;1.98;;
18806;SDS011;9531;52.030;4.380;2023-01-04T10:10:46;7.50;;;2.17;;
18806;SDS011;9531;52.030;4.380;2023-01-04T10:13:21;11.27;;;2.33;;
18806;SDS011;9531;52.030;4.380;2023-01-04T10:16:03;4.88;;;1.73;;
18806;SDS011;9531;52.030;4.380;2023-01-04T10:18:41;3.83;;;1.17;;
18806;SDS011;9531;52.030;4.380;2023-01-04T10:21:28;15.80;;;2.45;;
18806;SDS011;9531;52.030;4.380;2023-01-04T10:24:12;12.75;;;2.20;;
18806;SDS011;9531;52.030;4.380;2023-01-04T10:27:04;8.63;;;2.17;;
18806;SDS011;9531;52.030;4.380;2023-01-04T10:29:36;9.32;;;1.98;;
18806;SDS011;9531;52.030;4.380;2023-01-04T10:32:10;7.88;;;1.85;;
18806;SDS011;9531;52.030;4.380;2023-01-04T10:34:44;3.10;;;1.33;;
18806;SDS011;9531;52.030;4.380;2023-01-04T10:37:13;5.68;;;2.00;;
18806;SDS011;9531;52.030;4.380;2023-01-04T10:39:50;5.60;;;1.52;;
18806;SDS011;9531;52.030;4.380;2023-01-04T10:42:20;8.88;;;2.10;;
18806;SDS011;9531;52.030;4.380;2023-01-04T10:45:01;4.72;;;1.30;;
18806;SDS011;9531;52.030;4.380;2023-01-04T10:47:42;8.35;;;2.22;;
18806;SDS011;9531;52.030;4.380;2023-01-04T10:50:21;10.98;;;1.95;;
18806;SDS011;9531;52.030;4.380;2023-01-04T10:52:55;8.15;;;2.00;;
18806;SDS011;9531;52.030;4.380;2023-01-04T10:55:29;14.20;;;2.17;;
18806;SDS011;9531;52.030;4.380;2023-01-04T10:58:04;6.20;;;1.73;;
18806;SDS011;9531;52.030;4.380;2023-01-04T11:00:39;4.90;;;1.73;;
18806;SDS011;9531;52.030;4.380;2023-01-04T11:03:13;9.38;;;1.92;;
18806;SDS011;9531;52.030;4.380;2023-01-04T11:05:47;4.35;;;1.58;;
18806;SDS011;9531;52.030;4.380;2023-01-04T11:08:17;7.85;;;2.05;;
18806;SDS011;9531;52.030;4.380;2023-01-04T11:10:49;6.75;;;1.70;;
18806;SDS011;9531;52.030;4.380;2023-01-04T11:13:18;5.18;;;1.63;;
18806;SDS011;9531;52.030;4.380;2023-01-04T11:15:45;7.00;;;1.98;;
18806;SDS011;9531;52.030;4.380;2023-01-04T11:18:12;5.55;;;1.50;;
18806;SDS011;9531;52.030;4.380;2023-01-04T11:20:42;3.67;;;1.45;;
18806;SDS011;9531;52.030;4.380;2023-01-04T11:23:11;4.00;;;1.30;;
18806;SDS011;9531;52.030;4.380;2023-01-04T11:25:42;5.85;;;1.80;;
18806;SDS011;9531;52.030;4.380;2023-01-04T11:28:16;4.47;;;1.33;;
18806;SDS011;9531;52.030;4.380;2023-01-04T11:30:51;7.10;;;1.85;;
18806;SDS011;9531;52.030;4.380;2023-01-04T11:33:23;7.28;;;2.30;;
18806;SDS011;9531;52.030;4.380;2023-01-04T11:35:51;7.03;;;2.05;;
18806;SDS011;9531;52.030;4.380;2023-01-04T11:38:21;12.15;;;2.42;;
18806;SDS011;9531;52.030;4.380;2023-01-04T11:40:58;10.35;;;1.50;;
18806;SDS011;9531;52.030;4.380;2023-01-04T11:43:28;11.60;;;1.85;;
18806;SDS011;9531;52.030;4.380;2023-01-04T11:45:58;12.70;;;2.30;;
18806;SDS011;9531;52.030;4.380;2023-01-04T11:48:30;14.02;;;2.13;;
18806;SDS011;9531;52.030;4.380;2023-01-04T11:50:59;8.75;;;2.20;;
18806;SDS011;9531;52.030;4.380;2023-01-04T11:53:28;19.52;;;3.47;;
18806;SDS011;9531;52.030;4.380;2023-01-04T11:56:10;12.30;;;2.67;;
18806;SDS011;9531;52.030;4.380;2023-01-04T11:58:41;8.18;;;1.98;;
18806;SDS011;9531;52.030;4.380;2023-01-04T12:01:19;9.95;;;2.90;;
18806;SDS011;9531;52.030;4.380;2023-01-04T12:03:48;6.85;;;2.00;;
18806;SDS011;9531;52.030;4.380;2023-01-04T12:06:17;6.68;;;1.58;;
18806;SDS011;9531;52.030;4.380;2023-01-04T12:08:47;9.13;;;2.25;;
18806;SDS011;9531;52.030;4.380;2023-01-04T12:11:19;11.85;;;2.40;;
18806;SDS011;9531;52.030;4.380;2023-01-04T12:13:51;14.48;;;2.45;;
18806;SDS011;9531;52.030;4.380;2023-01-04T12:16:24;6.78;;;1.83;;
18806;SDS011;9531;52.030;4.380;2023-01-04T12:19:04;11.63;;;2.47;;
18806;SDS011;9531;52.030;4.380;2023-01-04T12:21:32;10.68;;;2.03;;
18806;SDS011;9531;52.030;4.380;2023-01-04T12:24:00;8.45;;;1.98;;
18806;SDS011;9531;52.030;4.380;2023-01-04T12:26:32;4.65;;;1.15;;
18806;SDS011;9531;52.030;4.380;2023-01-04T12:38:11;15.15;;;2.03;;
18806;SDS011;9531;52.030;4.380;2023-01-04T12:40:50;7.75;;;1.83;;
18806;SDS011;9531;52.030;4.380;2023-01-04T12:43:23;8.02;;;2.35;;
18806;SDS011;9531;52.030;4.380;2023-01-04T12:52:34;5.45;;;1.70;;
18806;SDS011;9531;52.030;4.380;2023-01-04T12:55:22;12.05;;;2.17;;
18806;SDS011;9531;52.030;4.380;2023-01-04T12:57:51;7.85;;;1.98;;
18806;SDS011;9531;52.030;4.380;2023-01-04T13:00:18;7.70;;;1.90;;
18806;SDS011;9531;52.030;4.380;2023-01-04T13:02:48;12.88;;;2.58;;
18806;SDS011;9531;52.030;4.380;2023-01-04T13:05:53;8.32;;;2.08;;
18806;SDS011;9531;52.030;4.380;2023-01-04T13:08:24;7.82;;;1.58;;
18806;SDS011;9531;52.030;4.380;2023-01-04T13:10:52;10.25;;;2.30;;
18806;SDS011;9531;52.030;4.380;2023-01-04T13:13:23;9.02;;;1.92;;
18806;SDS011;9531;52.030;4.380;2023-01-04T13:16:00;9.25;;;2.38;;
18806;SDS011;9531;52.030;4.380;2023-01-04T13:18:38;18.17;;;2.45;;
18806;SDS011;9531;52.030;4.380;2023-01-04T13:21:09;11.65;;;2.05;;
18806;SDS011;9531;52.030;4.380;2023-01-04T13:23:38;8.40;;;2.38;;
18806;SDS011;9531;52.030;4.380;2023-01-04T13:26:25;7.47;;;1.98;;
18806;SDS011;9531;52.030;4.380;2023-01-04T13:29:03;10.35;;;2.10;;
18806;SDS011;9531;52.030;4.380;2023-01-04T13:31:33;14.63;;;2.40;;
18806;SDS011;9531;52.030;4.380;2023-01-04T13:34:12;3.97;;;1.52;;
18806;SDS011;9531;52.030;4.380;2023-01-04T13:36:43;8.30;;;2.13;;
18806;SDS011;9531;52.030;4.380;2023-01-04T13:39:18;9.68;;;2.25;;
18806;SDS011;9531;52.030;4.380;2023-01-04T13:41:45;10.55;;;1.90;;
18806;SDS011;9531;52.030;4.380;2023-01-04T13:44:14;11.70;;;2.58;;
18806;SDS011;9531;52.030;4.380;2023-01-04T13:46:50;3.88;;;1.27;;
18806;SDS011;9531;52.030;4.380;2023-01-04T13:49:21;7.00;;;1.83;;
18806;SDS011;9531;52.030;4.380;2023-01-04T13:51:49;15.45;;;2.05;;
18806;SDS011;9531;52.030;4.380;2023-01-04T13:54:17;10.50;;;2.17;;
18806;SDS011;9531;52.030;4.380;2023-01-04T13:56:45;7.53;;;2.30;;
18806;SDS011;9531;52.030;4.380;2023-01-04T13:59:12;14.45;;;2.45;;
18806;SDS011;9531;52.030;4.380;2023-01-04T14:01:40;14.60;;;2.38;;
18806;SDS011;9531;52.030;4.380;2023-01-04T14:04:12;8.23;;;2.00;;
18806;SDS011;9531;52.030;4.380;2023-01-04T14:06:44;7.45;;;2.03;;
18806;SDS011;9531;52.030;4.380;2023-01-04T14:09:13;13.13;;;2.28;;
18806;SDS011;9531;52.030;4.380;2023-01-04T14:11:43;13.45;;;2.65;;
18806;SDS011;9531;52.030;4.380;2023-01-04T14:14:29;7.75;;;1.88;;
18806;SDS011;9531;52.030;4.380;2023-01-04T14:17:15;10.55;;;2.30;;
18806;SDS011;9531;52.030;4.380;2023-01-04T14:19:49;6.65;;;2.03;;
18806;SDS011;9531;52.030;4.380;2023-01-04T14:22:24;11.25;;;2.40;;
18806;SDS011;9531;52.030;4.380;2023-01-04T14:28:26;10.07;;;2.25;;
18806;SDS011;9531;52.030;4.380;2023-01-04T14:33:53;12.38;;;2.42;;
18806;SDS011;9531;52.030;4.380;2023-01-04T14:36:21;9.90;;;2.08;;
18806;SDS011;9531;52.030;4.380;2023-01-04T14:38:56;16.10;;;2.83;;
18806;SDS011;9531;52.030;4.380;2023-01-04T14:41:27;16.85;;;3.35;;
18806;SDS011;9531;52.030;4.380;2023-01-04T14:44:10;19.77;;;3.33;;
18806;SDS011;9531;52.030;4.380;2023-01-04T14:46:39;12.65;;;2.60;;
18806;SDS011;9531;52.030;4.380;2023-01-04T14:49:09;15.10;;;3.25;;
18806;SDS011;9531;52.030;4.380;2023-01-04T14:51:36;14.43;;;2.92;;
18806;SDS011;9531;52.030;4.380;2023-01-04T14:54:08;23.52;;;3.35;;
18806;SDS011;9531;52.030;4.380;2023-01-04T14:56:36;17.88;;;3.20;;
18806;SDS011;9531;52.030;4.380;2023-01-04T14:59:03;11.18;;;3.50;;
18806;SDS011;9531;52.030;4.380;2023-01-04T15:01:31;19.70;;;3.97;;
18806;SDS011;9531;52.030;4.380;2023-01-04T15:03:58;22.85;;;3.45;;
18806;SDS011;9531;52.030;4.380;2023-01-04T15:06:25;14.93;;;2.70;;
18806;SDS011;9531;52.030;4.380;2023-01-04T15:08:52;16.27;;;3.47;;
18806;SDS011;9531;52.030;4.380;2023-01-04T15:11:20;24.15;;;3.90;;
18806;SDS011;9531;52.030;4.380;2023-01-04T15:13:47;15.77;;;2.95;;
18806;SDS011;9531;52.030;4.380;2023-01-04T15:16:15;12.80;;;2.85;;
18806;SDS011;9531;52.030;4.380;2023-01-04T15:18:43;18.65;;;2.92;;
18806;SDS011;9531;52.030;4.380;2023-01-04T15:21:11;16.75;;;4.05;;
18806;SDS011;9531;52.030;4.380;2023-01-04T15:23:39;20.67;;;3.38;;
18806;SDS011;9531;52.030;4.380;2023-01-04T15:26:06;8.38;;;1.92;;
18806;SDS011;9531;52.030;4.380;2023-01-04T15:28:35;24.17;;;3.22;;
18806;SDS011;9531;52.030;4.380;2023-01-04T15:31:04;19.73;;;2.95;;
18806;SDS011;9531;52.030;4.380;2023-01-04T15:33:32;16.63;;;3.45;;
18806;SDS011;9531;52.030;4.380;2023-01-04T15:36:00;14.00;;;3.63;;
18806;SDS011;9531;52.030;4.380;2023-01-04T15:38:28;14.60;;;3.03;;
18806;SDS011;9531;52.030;4.380;2023-01-04T15:40:59;24.45;;;3.92;;
18806;SDS011;9531;52.030;4.380;2023-01-04T15:43:26;19.10;;;3.40;;
18806;SDS011;9531;52.030;4.380;2023-01-04T15:45:55;17.85;;;3.60;;
18806;SDS011;9531;52.030;4.380;2023-01-04T15:48:22;18.80;;;3.47;;
18806;SDS011;9531;52.030;4.380;2023-01-04T15:50:48;20.75;;;3.63;;
18806;SDS011;9531;52.030;4.380;2023-01-04T15:53:15;19.17;;;3.20;;